Arica, Chile

1:14 PM CLST on September 22, 2014 (GMT -0300)
Chacalluta International | Change Station
CLOSE
Current Station
Airport
Location: Arica,
Elevation: 190 ft
Nearby Weather Stations

Elev 190 ft 18.35 °S, 70.34 °W | Updated 14 minutes ago

Clear
Clear
66 °F
Feels Like 66 °F
N
8
Wind Variable Wind from WSW

Today
High -- | Low -- °F
--% Chance of Precip.
Yesterday
High -- | Low -- °F
Precip. -- in
7:30 AM 7:37 PM
Waning Crescent, 2% visible
Pressure 30.04 in
Visibility -9999.0 miles
Clouds
Dew Point 52 °F
Humidity 60%
Rainfall 0.00 in
Snow Depth Not available.
UV Not available.
Pollen Not available.
Air Quality Not available.
Flu Activity Not available.
METAR SCAR 221600Z 25007KT CAVOK 19/11 Q1017

More Conditions Fewer Conditions

Pressure 30.04 in
Visibility -9999.0 miles
Clouds
Dew Point 52 °F
Humidity 60%
Rainfall 0.00 in
Snow Depth Not available.
UV Not available.
Pollen Not available.
Air Quality Not available.
Flu Activity Not available.
METAR SCAR 221600Z 25007KT CAVOK 19/11 Q1017

More Conditions Fewer Conditions

10-Day Weather Forecast

Almanac

Astronomy

Sep. 22, 2014 Rise Set
Actual Time 7:30 AM CLST 7:37 PM CLST
Civil Twilight 7:09 AM CLST 7:59 PM CLST
Nautical Twilight 6:43 AM CLST 8:24 PM CLST
Astronomical Twilight 6:18 AM CLST 8:49 PM CLST
Moon 6:19 AM CLST 6:28 PM CLST
Length of Visible Light 12h 49m
Length of Day
12h 06m
Tomorrow will be 1m 2s longer.
Waning Crescent, 2% of the Moon is Illuminated
Today
Waning Crescent
Sep 24
New
Oct 1
First Quarter
Oct 8
Full
Oct 15
Last Quarter

Today's Extremes

Country Highs Country Lows

Community

WunderPhotos

Upload Photos

1,755,477 photos uploaded!

WunderBlogs® & News

Nearby

Snow Depth

Not available.

Earthquake Activity

City Distance Mag. Time & Date
No recent earthquake activity has been reported nearby.
Minimum magnitude displayed is 2.5.

Coastal Water Temperatures

Place Temperature
No Stations Reporting

Nearby Weather Stations